Time;durP1;ratioP1;P1;durP2;ratioP2;P2;SDS_P1;SDS_P2;PMS_P1;PMS_P2;Temp;Humidity;BMP_temperature;BMP_pressure;BME280_temperature;BME280_humidity;BME280_pressure;Samples;Min_cycle;Max_cycle;Signal;HPM_P1;HPM_P2
2024/04/02 00:01:07;;;;;;;0.05;0.05;;;;;;;-139.19;100.00;56970.53;5037007;28;20477;-64
2024/04/02 00:03:32;;;;;;;0.35;0.25;;;;;;;-139.19;100.00;56970.53;5036351;28;20183;-64
2024/04/02 00:05:58;;;;;;;0.00;0.00;;;;;;;-139.19;100.00;56970.53;5036656;28;20041;-64
2024/04/02 00:08:23;;;;;;;0.00;0.00;;;;;;;-139.19;100.00;56970.53;5036461;28;20025;-64
2024/04/02 00:10:49;;;;;;;0.00;0.00;;;;;;;-139.19;100.00;56970.53;5032947;28;20025;-64
2024/04/02 00:13:15;;;;;;;0.00;0.00;;;;;;;-139.19;100.00;56970.53;5036470;28;20037;-64
2024/04/02 00:15:45;;;;;;;0.00;0.00;;;;;;;-139.19;100.00;56970.53;5036227;28;20029;-64
2024/04/02 00:18:10;;;;;;;0.00;0.00;;;;;;;-139.19;100.00;56970.53;5037880;28;20403;-64
2024/04/02 00:20:35;;;;;;;0.00;0.00;;;;;;;-139.19;100.00;56970.53;5050810;28;20112;-64
2024/04/02 00:23:03;;;;;;;1.77;0.22;;;;;;;-139.19;100.00;56970.53;5045892;28;20363;-64
2024/04/02 00:25:28;;;;;;;0.00;0.00;;;;;;;-139.19;100.00;56970.53;5040471;28;20031;-64
2024/04/02 00:27:54;;;;;;;0.00;0.00;;;;;;;-139.19;100.00;56970.53;5055495;28;20099;-64
2024/04/02 00:30:27;;;;;;;1.27;0.38;;;;;;;-139.19;100.00;56970.53;5036522;28;20029;-64
2024/04/02 00:32:53;;;;;;;0.10;0.10;;;;;;;-139.19;100.00;56970.53;5042106;28;20032;-64
2024/04/02 00:35:20;;;;;;;0.00;0.00;;;;;;;-139.19;100.00;56970.53;5047190;28;20034;-64
2024/04/02 00:37:50;;;;;;;0.00;0.00;;;;;;;-139.19;100.00;56970.53;5047141;28;20033;-64
2024/04/02 00:40:15;;;;;;;0.13;0.13;;;;;;;-139.19;100.00;56970.53;5055402;28;20461;-65
2024/04/02 00:42:41;;;;;;;0.00;0.00;;;;;;;-139.19;100.00;56970.53;5027627;28;20088;-64
2024/04/02 00:45:07;;;;;;;0.00;0.00;;;;;;;-139.19;100.00;56970.53;5036110;28;20381;-65
2024/04/02 00:47:34;;;;;;;0.17;0.10;;;;;;;-139.19;100.00;56970.53;5037770;28;20068;-63
2024/04/02 00:50:01;;;;;;;0.00;0.00;;;;;;;-139.19;100.00;56970.53;5042217;28;20045;-63
2024/04/02 00:52:26;;;;;;;0.00;0.00;;;;;;;-139.19;100.00;56970.53;5026806;28;20029;-63
2024/04/02 00:54:53;;;;;;;0.00;0.00;;;;;;;-139.19;100.00;56970.53;5044880;28;20032;-64
2024/04/02 00:57:19;;;;;;;0.00;0.00;;;;;;;-139.19;100.00;56970.53;5042412;28;20029;-63
2024/04/02 00:59:44;;;;;;;0.00;0.00;;;;;;;-139.19;100.00;56970.53;5051179;28;20033;-63
2024/04/02 01:02:09;;;;;;;0.00;0.00;;;;;;;-139.19;100.00;56970.53;5046941;28;20048;-63
2024/04/02 01:04:35;;;;;;;0.00;0.00;;;;;;;-139.19;100.00;56970.53;5055336;28;20115;-63
2024/04/02 01:07:02;;;;;;;0.17;0.17;;;;;;;-139.19;100.00;56970.53;5060189;28;20024;-63
2024/04/02 01:09:29;;;;;;;0.00;0.00;;;;;;;-139.19;100.00;56970.53;5062003;28;20024;-63
2024/04/02 01:11:55;;;;;;;0.00;0.00;;;;;;;-139.19;100.00;56970.53;5055267;28;20013;-63
2024/04/02 01:14:20;;;;;;;0.00;0.00;;;;;;;-139.19;100.00;56970.53;5055220;28;20029;-63
2024/04/02 01:16:45;;;;;;;0.22;0.22;;;;;;;-139.19;100.00;56970.53;5064499;28;20043;-63
2024/04/02 01:19:11;;;;;;;0.00;0.00;;;;;;;-139.19;100.00;56970.53;5074522;28;20035;-63
2024/04/02 01:21:37;;;;;;;0.00;0.00;;;;;;;-139.19;100.00;56970.53;5055324;28;20017;-63
2024/04/02 01:24:03;;;;;;;0.00;0.00;;;;;;;-139.19;100.00;56970.53;5055464;28;20526;-63
2024/04/02 01:26:28;;;;;;;0.08;0.08;;;;;;;-139.19;100.00;56970.53;5057244;28;20067;-64
2024/04/02 01:28:57;;;;;;;0.00;0.00;;;;;;;-139.19;100.00;56970.53;5074488;28;20373;-63
2024/04/02 01:31:23;;;;;;;0.00;0.00;;;;;;;-139.19;100.00;56970.53;5073806;28;20036;-63
2024/04/02 01:33:48;;;;;;;0.00;0.00;;;;;;;-139.19;100.00;56970.53;5057909;28;20349;-63
2024/04/02 01:36:14;;;;;;;0.00;0.00;;;;;;;-139.19;100.00;56970.53;5055909;28;20052;-64
2024/04/02 01:38:39;;;;;;;0.00;0.00;;;;;;;-139.19;100.00;56970.53;5054686;28;20068;-63
2024/04/02 01:41:04;;;;;;;0.00;0.00;;;;;;;-139.19;100.00;56970.53;5066248;28;20068;-63
2024/04/02 01:43:30;;;;;;;0.00;0.00;;;;;;;-139.19;100.00;56970.53;5074334;28;20055;-63
2024/04/02 01:45:55;;;;;;;0.00;0.00;;;;;;;-139.19;100.00;56970.53;5057545;28;20094;-63
2024/04/02 01:48:20;;;;;;;0.00;0.00;;;;;;;-139.19;100.00;56970.53;5068310;28;20033;-63
2024/04/02 01:50:46;;;;;;;0.00;0.00;;;;;;;-139.19;100.00;56970.53;5050198;28;20441;-63
2024/04/02 01:53:11;;;;;;;0.00;0.00;;;;;;;-139.19;100.00;56970.53;5054679;28;20114;-63
2024/04/02 01:55:36;;;;;;;0.00;0.00;;;;;;;-139.19;100.00;56970.53;5054628;28;20495;-63
2024/04/02 01:58:02;;;;;;;0.90;0.90;;;;;;;-139.19;100.00;56970.53;5054671;28;20024;-63
2024/04/02 02:00:27;;;;;;;0.22;0.05;;;;;;;-139.19;100.00;56970.53;5059068;28;20024;-63
2024/04/02 02:02:53;;;;;;;0.20;0.20;;;;;;;-139.19;100.00;56970.53;5057790;28;20392;-63
2024/04/02 02:05:18;;;;;;;0.00;0.00;;;;;;;-139.19;100.00;56970.53;5040201;28;20033;-63
2024/04/02 02:07:44;;;;;;;0.00;0.00;;;;;;;-139.19;100.00;56970.53;5045152;28;20112;-63
2024/04/02 02:10:13;;;;;;;0.10;0.10;;;;;;;-139.19;100.00;56970.53;5053534;28;20039;-63
2024/04/02 02:12:38;;;;;;;3.10;0.70;;;;;;;-139.19;100.00;56970.53;5043015;28;20041;-63
2024/04/02 02:15:04;;;;;;;0.00;0.00;;;;;;;-139.19;100.00;56970.53;5034143;28;20459;-63
2024/04/02 02:17:29;;;;;;;0.05;0.05;;;;;;;-139.19;100.00;56970.53;5032872;28;20039;-63
2024/04/02 02:19:55;;;;;;;0.00;0.00;;;;;;;-139.19;100.00;56970.53;5045170;28;20108;-63
2024/04/02 02:22:20;;;;;;;0.00;0.00;;;;;;;-139.19;100.00;56970.53;5042070;28;20080;-63
2024/04/02 02:24:45;;;;;;;0.00;0.00;;;;;;;-139.19;100.00;56970.53;5044136;28;20033;-63
2024/04/02 02:27:11;;;;;;;0.00;0.00;;;;;;;-139.19;100.00;56970.53;5053551;28;20025;-63
2024/04/02 02:29:36;;;;;;;0.00;0.00;;;;;;;-139.19;100.00;56970.53;5052918;28;20424;-63
2024/04/02 02:32:02;;;;;;;0.05;0.05;;;;;;;-139.19;100.00;56970.53;5046077;28;20436;-63
2024/04/02 02:34:29;;;;;;;0.00;0.00;;;;;;;-139.19;100.00;56970.53;5037543;28;20458;-63
2024/04/02 02:36:54;;;;;;;0.00;0.00;;;;;;;-139.19;100.00;56970.53;5037451;28;20107;-63
2024/04/02 02:39:20;;;;;;;0.00;0.00;;;;;;;-139.19;100.00;56970.53;5042172;28;20084;-63
2024/04/02 02:41:46;;;;;;;0.10;0.10;;;;;;;-139.19;100.00;56970.53;5032238;28;20116;-63
2024/04/02 02:44:12;;;;;;;0.00;0.00;;;;;;;-139.19;100.00;56970.53;5042052;28;20113;-63
2024/04/02 02:46:38;;;;;;;0.10;0.10;;;;;;;-139.19;100.00;56970.53;5042063;28;20048;-64
2024/04/02 02:49:03;;;;;;;0.00;0.00;;;;;;;-139.19;100.00;56970.53;5044339;28;20493;-63
2024/04/02 02:51:29;;;;;;;0.00;0.00;;;;;;;-139.19;100.00;56970.53;5053012;28;20029;-63
2024/04/02 02:53:54;;;;;;;0.00;0.00;;;;;;;-139.19;100.00;56970.53;5052763;28;20468;-63
2024/04/02 02:56:19;;;;;;;0.08;0.08;;;;;;;-139.19;100.00;56970.53;5018203;28;20495;-63
2024/04/02 02:58:45;;;;;;;0.00;0.00;;;;;;;-139.19;100.00;56970.53;5024646;28;20508;-63
2024/04/02 03:01:11;;;;;;;0.00;0.00;;;;;;;-139.19;100.00;56970.53;5041257;28;20021;-63
2024/04/02 03:03:37;;;;;;;0.00;0.00;;;;;;;-139.19;100.00;56970.53;5033373;28;20496;-63
2024/04/02 03:06:02;;;;;;;0.13;0.13;;;;;;;-139.19;100.00;56970.53;5048561;28;20021;-64
2024/04/02 03:08:28;;;;;;;0.00;0.00;;;;;;;-139.19;100.00;56970.53;5050891;28;20025;-64
2024/04/02 03:11:05;;;;;;;0.25;0.25;;;;;;;-139.19;100.00;56970.53;5026786;28;20022;-64
2024/04/02 03:13:32;;;;;;;0.10;0.10;;;;;;;-139.19;100.00;56970.53;5041773;28;20476;-64
2024/04/02 03:15:57;;;;;;;0.10;0.10;;;;;;;-139.19;100.00;56970.53;5048706;28;20469;-64
2024/04/02 03:18:23;;;;;;;0.00;0.00;;;;;;;-139.19;100.00;56970.53;5033455;28;20079;-64
2024/04/02 03:20:49;;;;;;;0.00;0.00;;;;;;;-139.19;100.00;56970.53;5033068;28;20022;-64
2024/04/02 03:23:16;;;;;;;0.00;0.00;;;;;;;-139.19;100.00;56970.53;5041714;28;20021;-64
2024/04/02 03:25:50;;;;;;;0.00;0.00;;;;;;;-139.19;100.00;56970.53;5027464;28;20085;-64
2024/04/02 03:28:15;;;;;;;0.10;0.10;;;;;;;-139.19;100.00;56970.53;5044938;28;20044;-64
2024/04/02 03:30:41;;;;;;;0.43;0.43;;;;;;;-139.19;100.00;56970.53;5052726;28;20029;-64
2024/04/02 03:33:06;;;;;;;0.00;0.00;;;;;;;-139.19;100.00;56970.53;5054553;28;20031;-64
2024/04/02 03:35:35;;;;;;;0.05;0.05;;;;;;;-139.19;100.00;56970.53;5045665;28;20100;-64
2024/04/02 03:38:00;;;;;;;0.00;0.00;;;;;;;-139.19;100.00;56970.53;5048760;28;20033;-64
2024/04/02 03:40:26;;;;;;;0.00;0.00;;;;;;;-139.19;100.00;56970.53;5057095;28;20032;-64
2024/04/02 03:42:52;;;;;;;0.00;0.00;;;;;;;-139.19;100.00;56970.53;5057332;28;20027;-64
2024/04/02 03:45:19;;;;;;;0.00;0.00;;;;;;;-139.19;100.00;56970.53;5017407;28;20025;-64
2024/04/02 03:47:45;;;;;;;0.00;0.00;;;;;;;-139.19;100.00;56970.53;5017321;28;20032;-64
2024/04/02 03:50:10;;;;;;;0.00;0.00;;;;;;;-139.19;100.00;56970.53;5017373;28;20113;-64
2024/04/02 03:52:35;;;;;;;0.00;0.00;;;;;;;-139.19;100.00;56970.53;5017111;28;20057;-64
2024/04/02 03:55:01;;;;;;;0.00;0.00;;;;;;;-139.19;100.00;56970.53;5017043;28;20139;-64
2024/04/02 03:57:26;;;;;;;0.00;0.00;;;;;;;-139.19;100.00;56970.53;5017108;28;20385;-64
2024/04/02 03:59:51;;;;;;;0.03;0.03;;;;;;;-139.19;100.00;56970.53;5016964;28;20458;-64
2024/04/02 04:02:17;;;;;;;0.00;0.00;;;;;;;-139.19;100.00;56970.53;5016501;28;20046;-64
2024/04/02 04:04:42;;;;;;;0.10;0.10;;;;;;;-139.19;100.00;56970.53;5016975;28;20490;-64
2024/04/02 04:07:07;;;;;;;0.00;0.00;;;;;;;-139.19;100.00;56970.53;5016874;28;20033;-64
2024/04/02 04:09:32;;;;;;;0.05;0.05;;;;;;;-139.19;100.00;56970.53;5016861;28;20037;-64
2024/04/02 04:11:58;;;;;;;0.00;0.00;;;;;;;-139.19;100.00;56970.53;5016819;28;20030;-64
2024/04/02 04:14:23;;;;;;;0.00;0.00;;;;;;;-139.19;100.00;56970.53;5016851;28;20026;-65
2024/04/02 04:16:48;;;;;;;1.65;0.32;;;;;;;-139.19;100.00;56970.53;5016866;28;20034;-64
2024/04/02 04:19:14;;;;;;;0.00;0.00;;;;;;;-139.19;100.00;56970.53;5016577;28;20037;-64
2024/04/02 04:21:39;;;;;;;0.00;0.00;;;;;;;-139.19;100.00;56970.53;5016853;28;20101;-64
2024/04/02 04:24:05;;;;;;;0.00;0.00;;;;;;;-139.19;100.00;56970.53;5016617;28;20112;-64
2024/04/02 04:26:31;;;;;;;0.00;0.00;;;;;;;-139.19;100.00;56970.53;5016799;28;20431;-64
2024/04/02 04:28:56;;;;;;;0.00;0.00;;;;;;;-139.19;100.00;56970.53;5016749;28;20041;-64
2024/04/02 04:31:22;;;;;;;0.10;0.10;;;;;;;-139.19;100.00;56970.53;5016427;28;20489;-64
2024/04/02 04:33:47;;;;;;;0.00;0.00;;;;;;;-139.19;100.00;56970.53;5016394;28;20108;-64
2024/04/02 04:36:13;;;;;;;0.00;0.00;;;;;;;-139.19;100.00;56970.53;5016374;28;20034;-64
2024/04/02 04:38:38;;;;;;;0.00;0.00;;;;;;;-139.19;100.00;56970.53;5016288;28;20118;-64
2024/04/02 04:41:04;;;;;;;0.00;0.00;;;;;;;-139.19;100.00;56970.53;5016318;28;20022;-64
2024/04/02 04:43:29;;;;;;;0.43;0.35;;;;;;;-139.19;100.00;56970.53;5015987;28;20034;-64
2024/04/02 04:45:57;;;;;;;5.50;0.57;;;;;;;-139.19;100.00;56970.53;5016155;28;20093;-64
2024/04/02 04:48:23;;;;;;;0.65;0.65;;;;;;;-139.19;100.00;56970.53;5016364;28;20462;-64
2024/04/02 04:51:04;;;;;;;0.85;0.25;;;;;;;-139.19;100.00;56970.53;5016227;28;20550;-64
2024/04/02 04:53:32;;;;;;;0.00;0.00;;;;;;;-139.19;100.00;56970.53;5016029;28;20034;-64
2024/04/02 04:56:01;;;;;;;0.00;0.00;;;;;;;-139.19;100.00;56970.53;5016235;28;20493;-64
2024/04/02 04:58:27;;;;;;;0.00;0.00;;;;;;;-139.19;100.00;56970.53;5016002;28;20108;-64
2024/04/02 05:00:54;;;;;;;0.00;0.00;;;;;;;-139.19;100.00;56970.53;5016130;28;20056;-65
2024/04/02 05:03:19;;;;;;;0.00;0.00;;;;;;;-139.19;100.00;56970.53;5015607;28;20050;-64
2024/04/02 05:05:45;;;;;;;0.00;0.00;;;;;;;-139.19;100.00;56970.53;5015803;28;20545;-64
2024/04/02 05:08:28;;;;;;;0.00;0.00;;;;;;;-139.19;100.00;56970.53;5016003;28;20476;-64
2024/04/02 05:10:54;;;;;;;0.20;0.20;;;;;;;-139.19;100.00;56970.53;5015910;28;20493;-64
2024/04/02 05:13:20;;;;;;;0.00;0.00;;;;;;;-139.19;100.00;56970.53;5015903;28;20084;-64
2024/04/02 05:15:45;;;;;;;0.00;0.00;;;;;;;-139.19;100.00;56970.53;5015916;28;20105;-64
2024/04/02 05:18:11;;;;;;;0.00;0.00;;;;;;;-139.19;100.00;56970.53;5015865;28;20517;-64
2024/04/02 05:20:37;;;;;;;0.00;0.00;;;;;;;-139.19;100.00;56970.53;5015479;28;20054;-64
2024/04/02 05:23:03;;;;;;;0.10;0.10;;;;;;;-139.19;100.00;56970.53;5015572;28;20064;-64
2024/04/02 05:25:29;;;;;;;0.05;0.05;;;;;;;-139.19;100.00;56970.53;5015517;28;20034;-63
2024/04/02 05:27:54;;;;;;;0.13;0.13;;;;;;;-139.19;100.00;56970.53;5015436;28;20032;-63
2024/04/02 05:30:20;;;;;;;0.20;0.20;;;;;;;-139.19;100.00;56970.53;5015316;28;20393;-63
2024/04/02 05:32:45;;;;;;;0.00;0.00;;;;;;;-139.19;100.00;56970.53;5015463;28;20403;-63
2024/04/02 05:35:10;;;;;;;1.00;0.68;;;;;;;-139.19;100.00;56970.53;5015260;28;20040;-63
2024/04/02 05:37:36;;;;;;;0.10;0.10;;;;;;;-139.19;100.00;56970.53;5015249;28;20124;-63
2024/04/02 05:40:05;;;;;;;0.00;0.00;;;;;;;-139.19;100.00;56970.53;5015191;28;20088;-63
2024/04/02 05:42:31;;;;;;;0.10;0.10;;;;;;;-139.19;100.00;56970.53;5015378;28;20434;-63
2024/04/02 05:44:56;;;;;;;0.00;0.00;;;;;;;-139.19;100.00;56970.53;5015318;28;20540;-63
2024/04/02 05:47:22;;;;;;;0.10;0.10;;;;;;;-139.19;100.00;56970.53;5015319;28;20112;-63
2024/04/02 05:49:48;;;;;;;0.32;0.32;;;;;;;-139.19;100.00;56970.53;5030485;28;20056;-63
2024/04/02 05:52:14;;;;;;;0.00;0.00;;;;;;;-139.19;100.00;56970.53;5034747;28;20090;-63
2024/04/02 05:54:39;;;;;;;0.35;0.30;;;;;;;-139.19;100.00;56970.53;5033978;28;20476;-63
2024/04/02 05:57:04;;;;;;;0.10;0.10;;;;;;;-139.19;100.00;56970.53;5016946;28;20033;-63
2024/04/02 05:59:30;;;;;;;0.00;0.00;;;;;;;-139.19;100.00;56970.53;5014831;28;20033;-63
2024/04/02 06:01:55;;;;;;;0.00;0.00;;;;;;;-139.19;100.00;56970.53;5014671;28;20402;-63
2024/04/02 06:04:20;;;;;;;0.03;0.03;;;;;;;-139.19;100.00;56970.53;5014616;28;20038;-63
2024/04/02 06:06:47;;;;;;;0.00;0.00;;;;;;;-139.19;100.00;56970.53;5014707;28;20041;-63
2024/04/02 06:09:12;;;;;;;0.10;0.10;;;;;;;-139.19;100.00;56970.53;5014615;28;20041;-63
2024/04/02 06:11:37;;;;;;;0.10;0.10;;;;;;;-139.19;100.00;56970.53;5014746;28;20022;-63
2024/04/02 06:14:03;;;;;;;0.00;0.00;;;;;;;-139.19;100.00;56970.53;5014519;28;20041;-63
2024/04/02 06:16:28;;;;;;;0.13;0.13;;;;;;;-139.19;100.00;56970.53;5014503;28;20029;-63
2024/04/02 06:18:53;;;;;;;0.05;0.05;;;;;;;-139.19;100.00;56970.53;5014457;28;20363;-63
2024/04/02 06:21:19;;;;;;;1.75;0.52;;;;;;;-139.19;100.00;56970.53;5014476;28;20030;-63
2024/04/02 06:23:47;;;;;;;0.22;0.22;;;;;;;-139.19;100.00;56970.53;5014606;28;20030;-63
2024/04/02 06:26:16;;;;;;;0.03;0.03;;;;;;;-139.19;100.00;56970.53;5014319;28;20025;-63
2024/04/02 06:28:42;;;;;;;0.00;0.00;;;;;;;-139.19;100.00;56970.53;5014118;28;20036;-63
2024/04/02 06:31:08;;;;;;;0.00;0.00;;;;;;;-139.19;100.00;56970.53;5014155;28;20386;-63
2024/04/02 06:33:33;;;;;;;0.00;0.00;;;;;;;-139.19;100.00;56970.53;5014254;28;20030;-63
2024/04/02 06:35:59;;;;;;;0.00;0.00;;;;;;;-139.19;100.00;56970.53;5014295;28;20397;-63
2024/04/02 06:38:24;;;;;;;0.00;0.00;;;;;;;-139.19;100.00;56970.53;5014072;28;20040;-63
2024/04/02 06:40:49;;;;;;;0.00;0.00;;;;;;;-139.19;100.00;56970.53;5014117;28;20022;-63
2024/04/02 06:43:15;;;;;;;0.00;0.00;;;;;;;-139.19;100.00;56970.53;5014171;28;20034;-63
2024/04/02 06:45:41;;;;;;;0.00;0.00;;;;;;;-139.19;100.00;56970.53;5013946;28;20018;-63
2024/04/02 06:48:07;;;;;;;0.00;0.00;;;;;;;-139.19;100.00;56970.53;5014245;28;20036;-63
2024/04/02 06:50:33;;;;;;;0.10;0.10;;;;;;;-139.19;100.00;56970.53;5014008;28;20033;-63
2024/04/02 06:52:58;;;;;;;0.13;0.13;;;;;;;-139.19;100.00;56970.53;5013752;28;20120;-63
2024/04/02 06:55:24;;;;;;;0.08;0.08;;;;;;;-139.19;100.00;56970.53;5013934;28;20437;-63
2024/04/02 06:57:49;;;;;;;0.08;0.08;;;;;;;-139.19;100.00;56970.53;5044981;28;20350;-63
2024/04/02 07:00:16;;;;;;;0.10;0.10;;;;;;;-139.19;100.00;56970.53;5053497;28;20032;-63
2024/04/02 07:02:44;;;;;;;0.10;0.10;;;;;;;-139.19;100.00;56970.53;5053209;28;20049;-63
2024/04/02 07:05:10;;;;;;;0.10;0.10;;;;;;;-139.19;100.00;56970.53;5017573;28;20038;-63
2024/04/02 07:07:37;;;;;;;0.00;0.00;;;;;;;-139.19;100.00;56970.53;5013563;28;20040;-63
2024/04/02 07:10:03;;;;;;;0.10;0.10;;;;;;;-139.19;100.00;56970.53;5013617;28;20030;-63
2024/04/02 07:12:29;;;;;;;0.00;0.00;;;;;;;-139.19;100.00;56970.53;5013557;28;20105;-64
2024/04/02 07:14:54;;;;;;;0.00;0.00;;;;;;;-139.19;100.00;56970.53;5013552;28;20104;-63
2024/04/02 07:17:20;;;;;;;0.45;0.30;;;;;;;-139.19;100.00;56970.53;5013728;28;20381;-63
2024/04/02 07:19:45;;;;;;;0.00;0.00;;;;;;;-139.19;100.00;56970.53;5013349;28;20040;-64
2024/04/02 07:22:10;;;;;;;0.00;0.00;;;;;;;-139.19;100.00;56970.53;5013278;28;20454;-64
2024/04/02 07:24:35;;;;;;;0.00;0.00;;;;;;;-139.19;100.00;56970.53;5013687;28;20101;-63
2024/04/02 07:27:01;;;;;;;0.10;0.10;;;;;;;-139.19;100.00;56970.53;5013435;28;20069;-63
2024/04/02 07:29:26;;;;;;;0.10;0.10;;;;;;;-139.19;100.00;56970.53;5013446;28;20064;-63
2024/04/02 07:31:51;;;;;;;0.00;0.00;;;;;;;-139.19;100.00;56970.53;5013381;28;20121;-63
2024/04/02 07:34:17;;;;;;;8.95;0.30;;;;;;;-139.19;100.00;56970.53;5013364;28;20032;-63
2024/04/02 07:36:44;;;;;;;0.00;0.00;;;;;;;-139.19;100.00;56970.53;5021486;28;20061;-63
2024/04/02 07:39:09;;;;;;;0.00;0.00;;;;;;;-139.19;100.00;56970.53;5033332;28;20037;-63
2024/04/02 07:41:35;;;;;;;21.05;0.65;;;;;;;-139.19;100.00;56970.53;5033245;28;20496;-64
2024/04/02 07:44:00;;;;;;;0.00;0.00;;;;;;;-139.19;100.00;56970.53;5033025;28;20500;-64
2024/04/02 07:46:25;;;;;;;0.00;0.00;;;;;;;-139.19;100.00;56970.53;5032924;28;20032;-65
2024/04/02 07:48:51;;;;;;;1.02;0.40;;;;;;;-139.19;100.00;56970.53;5032659;28;20033;-64
2024/04/02 07:51:16;;;;;;;5.70;0.70;;;;;;;-139.19;100.00;56970.53;5032771;28;20037;-64
2024/04/02 07:53:44;;;;;;;0.00;0.00;;;;;;;-139.19;100.00;56970.53;5028228;28;20048;-64
2024/04/02 07:56:09;;;;;;;0.00;0.00;;;;;;;-139.19;100.00;56970.53;5013200;28;20367;-64
2024/04/02 07:58:34;;;;;;;0.00;0.00;;;;;;;-139.19;100.00;56970.53;5013018;28;20037;-64
2024/04/02 08:01:00;;;;;;;0.38;0.38;;;;;;;-139.19;100.00;56970.53;5012976;28;20030;-64
2024/04/02 08:03:25;;;;;;;0.20;0.20;;;;;;;-139.19;100.00;56970.53;5013392;28;20034;-64
2024/04/02 08:05:58;;;;;;;0.00;0.00;;;;;;;-139.19;100.00;56970.53;5013187;28;20025;-64
2024/04/02 08:08:24;;;;;;;0.00;0.00;;;;;;;-139.19;100.00;56970.53;5013331;28;20053;-64
2024/04/02 08:10:49;;;;;;;0.10;0.10;;;;;;;-139.19;100.00;56970.53;5013217;28;20061;-64
2024/04/02 08:13:14;;;;;;;0.00;0.00;;;;;;;-139.19;100.00;56970.53;5013125;28;20032;-64
2024/04/02 08:15:40;;;;;;;0.38;0.35;;;;;;;-139.19;100.00;56970.53;5013246;28;20025;-64
2024/04/02 08:18:05;;;;;;;0.13;0.13;;;;;;;-139.19;100.00;56970.53;5015080;28;20045;-64
2024/04/02 08:20:31;;;;;;;0.03;0.03;;;;;;;-139.19;100.00;56970.53;5016957;28;20017;-65
2024/04/02 08:22:59;;;;;;;0.08;0.08;;;;;;;-139.19;100.00;56970.53;5016506;28;20034;-65
2024/04/02 08:25:25;;;;;;;0.38;0.30;;;;;;;-139.19;100.00;56970.53;5016879;28;20392;-65
2024/04/02 08:27:50;;;;;;;0.25;0.25;;;;;;;-139.19;100.00;56970.53;5016557;28;20029;-65
2024/04/02 08:30:15;;;;;;;3.20;1.23;;;;;;;-139.19;100.00;56970.53;5016720;28;20416;-65
2024/04/02 08:32:41;;;;;;;0.90;0.73;;;;;;;-139.19;100.00;56970.53;5016425;28;20537;-65
2024/04/02 08:35:06;;;;;;;0.00;0.00;;;;;;;-139.19;100.00;56970.53;5016375;28;20037;-65
2024/04/02 08:37:31;;;;;;;0.00;0.00;;;;;;;-139.19;100.00;56970.53;5016244;28;20029;-65
2024/04/02 08:39:57;;;;;;;0.05;0.05;;;;;;;-139.19;100.00;56970.53;5016367;28;20058;-65
2024/04/02 08:42:25;;;;;;;0.35;0.35;;;;;;;-139.19;100.00;56970.53;5016334;28;20033;-65
2024/04/02 08:44:51;;;;;;;0.10;0.10;;;;;;;-139.19;100.00;56970.53;5016258;28;20034;-65
2024/04/02 08:47:17;;;;;;;2.20;0.43;;;;;;;-139.19;100.00;56970.53;5016500;28;20112;-65
2024/04/02 08:49:44;;;;;;;0.03;0.03;;;;;;;-139.19;100.00;56970.53;5016158;28;20454;-66
2024/04/02 08:52:10;;;;;;;0.00;0.00;;;;;;;-139.19;100.00;56970.53;5016023;28;20018;-65
2024/04/02 08:54:35;;;;;;;0.00;0.00;;;;;;;-139.19;100.00;56970.53;5015949;28;20045;-65
2024/04/02 08:57:02;;;;;;;0.10;0.10;;;;;;;-139.19;100.00;56970.53;5016067;28;20076;-64
2024/04/02 08:59:31;;;;;;;0.75;0.20;;;;;;;-139.19;100.00;56970.53;5016250;28;20486;-64
2024/04/02 09:01:58;;;;;;;0.20;0.20;;;;;;;-139.19;100.00;56970.53;5015775;28;20046;-64
2024/04/02 09:04:25;;;;;;;1.00;0.40;;;;;;;-139.19;100.00;56970.53;5015894;28;20041;-64
2024/04/02 09:06:50;;;;;;;2.10;0.63;;;;;;;-139.19;100.00;56970.53;5016000;28;20393;-64
2024/04/02 09:09:23;;;;;;;0.00;0.00;;;;;;;-139.19;100.00;56970.53;5015810;28;20029;-64
2024/04/02 09:11:50;;;;;;;0.05;0.05;;;;;;;-139.19;100.00;56970.53;5015922;28;20381;-64
2024/04/02 09:14:16;;;;;;;1.55;0.45;;;;;;;-139.19;100.00;56970.53;5015995;28;20030;-64
2024/04/02 09:16:42;;;;;;;0.10;0.10;;;;;;;-139.19;100.00;56970.53;5015625;28;20355;-68
2024/04/02 09:19:07;;;;;;;0.00;0.00;;;;;;;-139.19;100.00;56970.53;5015552;28;20038;-64
2024/04/02 09:21:32;;;;;;;3.40;0.65;;;;;;;-139.19;100.00;56970.53;5015508;28;20036;-64
2024/04/02 09:23:58;;;;;;;0.10;0.10;;;;;;;-139.19;100.00;56970.53;5015778;28;20049;-64
2024/04/02 09:26:23;;;;;;;1.08;0.25;;;;;;;-139.19;100.00;56970.53;5015517;28;20029;-64
2024/04/02 09:28:50;;;;;;;0.38;0.30;;;;;;;-139.19;100.00;56970.53;5014594;28;20068;-64
2024/04/02 09:31:16;;;;;;;0.00;0.00;;;;;;;-139.19;100.00;56970.53;5015510;28;20029;-64
2024/04/02 09:33:43;;;;;;;6.65;0.30;;;;;;;-139.19;100.00;56970.53;5015329;28;20420;-64
2024/04/02 09:36:15;;;;;;;0.57;0.30;;;;;;;-139.19;100.00;56970.53;5015215;28;20057;-64
2024/04/02 09:38:41;;;;;;;0.60;0.60;;;;;;;-139.19;100.00;56970.53;5015286;28;20567;-64
2024/04/02 09:41:07;;;;;;;0.00;0.00;;;;;;;-139.19;100.00;56970.53;5015100;28;20109;-64
2024/04/02 09:43:36;;;;;;;0.00;0.00;;;;;;;-139.19;100.00;56970.53;5015161;28;20109;-64
2024/04/02 09:46:03;;;;;;;0.30;0.30;;;;;;;-139.19;100.00;56970.53;5015214;28;20030;-64
2024/04/02 09:48:31;;;;;;;0.00;0.00;;;;;;;-139.19;100.00;56970.53;5015302;28;20102;-64
2024/04/02 09:50:57;;;;;;;0.30;0.10;;;;;;;-139.19;100.00;56970.53;5015145;28;20394;-64
2024/04/02 09:53:24;;;;;;;0.00;0.00;;;;;;;-139.19;100.00;56970.53;5015215;28;20470;-64
2024/04/02 09:55:57;;;;;;;0.00;0.00;;;;;;;-139.19;100.00;56970.53;5014998;28;20521;-66
2024/04/02 09:58:23;;;;;;;0.00;0.00;;;;;;;-139.19;100.00;56970.53;5014541;28;20026;-63
2024/04/02 10:00:52;;;;;;;0.00;0.00;;;;;;;-139.19;100.00;56970.53;5014752;28;20037;-63
2024/04/02 10:03:20;;;;;;;4.35;1.40;;;;;;;-139.19;100.00;56970.53;5014580;28;20502;-63
2024/04/02 10:05:45;;;;;;;0.10;0.10;;;;;;;-139.19;100.00;56970.53;5015021;28;20034;-65
2024/04/02 10:08:11;;;;;;;0.17;0.17;;;;;;;-139.19;100.00;56970.53;5014443;28;20085;-64
2024/04/02 10:10:40;;;;;;;0.10;0.10;;;;;;;-139.19;100.00;56970.53;5014758;28;20026;-64
2024/04/02 10:13:06;;;;;;;0.00;0.00;;;;;;;-139.19;100.00;56970.53;5014558;28;20022;-64
2024/04/02 10:15:33;;;;;;;0.10;0.10;;;;;;;-139.19;100.00;56970.53;5014518;28;20381;-64
2024/04/02 10:17:59;;;;;;;0.22;0.22;;;;;;;-139.19;100.00;56970.53;5014548;28;20069;-64
2024/04/02 10:20:27;;;;;;;0.00;0.00;;;;;;;-139.19;100.00;56970.53;5019590;28;20069;-64
2024/04/02 10:22:54;;;;;;;0.10;0.10;;;;;;;-139.19;100.00;56970.53;5033928;28;20033;-64
2024/04/02 10:25:20;;;;;;;1.52;0.45;;;;;;;-139.19;100.00;56970.53;5024817;28;20478;-64
2024/04/02 10:27:48;;;;;;;0.00;0.00;;;;;;;-139.19;100.00;56970.53;5014349;28;20026;-64
2024/04/02 10:30:19;;;;;;;0.08;0.08;;;;;;;-139.19;100.00;56970.53;5014089;28;20069;-64
2024/04/02 10:32:45;;;;;;;1.88;0.75;;;;;;;-139.19;100.00;56970.53;5017754;28;20026;-64
2024/04/02 10:35:21;;;;;;;0.10;0.10;;;;;;;-139.19;100.00;56970.53;5026788;28;20512;-64
2024/04/02 10:37:48;;;;;;;0.00;0.00;;;;;;;-139.19;100.00;56970.53;5030686;28;20052;-64
2024/04/02 10:40:14;;;;;;;0.00;0.00;;;;;;;-139.19;100.00;56970.53;5028596;28;20447;-64
2024/04/02 10:42:41;;;;;;;0.57;0.57;;;;;;;-139.19;100.00;56970.53;5033068;28;20063;-64
2024/04/02 10:45:10;;;;;;;0.20;0.20;;;;;;;-139.19;100.00;56970.53;5029917;28;20108;-64
2024/04/02 10:47:38;;;;;;;0.00;0.00;;;;;;;-139.19;100.00;56970.53;5032535;28;20021;-64
2024/04/02 10:50:05;;;;;;;0.00;0.00;;;;;;;-139.19;100.00;56970.53;5031976;28;20041;-64
2024/04/02 10:52:39;;;;;;;1.98;0.70;;;;;;;-139.19;100.00;56970.53;5032761;28;20053;-64
2024/04/02 10:55:05;;;;;;;0.00;0.00;;;;;;;-139.19;100.00;56970.53;5032775;28;20033;-64
2024/04/02 10:57:34;;;;;;;0.47;0.45;;;;;;;-139.19;100.00;56970.53;5031493;28;20029;-64
2024/04/02 11:00:10;;;;;;;0.43;0.13;;;;;;;-139.19;100.00;56970.53;5030532;28;20464;-63
2024/04/02 11:02:41;;;;;;;0.08;0.08;;;;;;;-139.19;100.00;56970.53;5030665;28;20513;-63
2024/04/02 11:05:12;;;;;;;0.00;0.00;;;;;;;-139.19;100.00;56970.53;5031195;28;20424;-62